Impacts TAF Board INFO
FOR SITUATIONAL AWARENESS. NOT TO BE USED FOR FLIGHT PLANNING PURPOSES.
IDs:

KFLL - Ft Lauderdale-Hollyw, FL, US

Issued at 0959 UTC 23 Jan 2018
Updated at 1019 UTC 23 Jan 2018
Potential Impact None Slight Moderate High
Time<<24/11Z 24/12Z 24/13Z 24/14Z 24/15Z 24/16Z 24/17Z 24/18Z 24/19Z 24/20Z 24/21Z 24/22Z 24/23Z
Type PRVL
VIS >6
CIG 25
Cover OVC
FltCat MVFR
WX --
WDir 320
WSpd 3
WGst --

Raw TAF
KFLL 230959Z 2310/2412 13010KT P6SM SCT020 BKN150
  FM231400 15010KT P6SM VCSH SCT025 BKN050
  FM240000 17005KT P6SM VCSH SCT025 BKN050
  FM240200 VRB03KT P6SM BKN050
  FM240600 32003KT P6SM OVC025


METAR Board
Radar Display
Forecast Discussion

FOR SITUATIONAL AWARENESS. NOT TO BE USED FOR FLIGHT PLANNING PURPOSES.